createdAt,value
2022-12-18T00:00:10.921Z,-2.24
2022-12-18T00:02:39.445Z,-2.50
2022-12-18T00:05:09.543Z,-2.81
2022-12-18T00:07:37.985Z,-2.82
2022-12-18T00:10:07.620Z,-2.68
2022-12-18T00:12:35.430Z,-2.77
2022-12-18T00:15:06.445Z,-2.73
2022-12-18T00:17:34.562Z,-2.32
2022-12-18T00:20:02.532Z,-2.40
2022-12-18T00:22:30.321Z,-2.54
2022-12-18T00:24:58.236Z,-2.69
2022-12-18T00:27:26.052Z,-2.80
2022-12-18T00:29:53.833Z,-3.25
2022-12-18T00:32:23.405Z,-2.82
2022-12-18T00:34:51.162Z,-2.77
2022-12-18T00:37:20.401Z,-2.70
2022-12-18T00:39:50.372Z,-2.66
2022-12-18T00:42:35.810Z,-3.07
2022-12-18T00:45:09.088Z,-3.23
2022-12-18T00:47:42.320Z,-3.55
2022-12-18T00:50:11.798Z,-3.53
2022-12-18T00:52:39.832Z,-3.18
2022-12-18T00:55:08.880Z,-3.50
2022-12-18T00:57:37.082Z,-3.60
2022-12-18T01:00:06.328Z,-3.26
2022-12-18T01:02:34.289Z,-3.70
2022-12-18T01:05:03.739Z,-3.28
2022-12-18T01:07:31.660Z,-3.43
2022-12-18T01:09:59.720Z,-3.14
2022-12-18T01:12:27.672Z,-3.17
2022-12-18T01:14:55.528Z,-3.08
2022-12-18T01:17:24.085Z,-3.14
2022-12-18T01:19:52.111Z,-3.18
2022-12-18T01:22:21.291Z,-3.03
2022-12-18T01:24:49.112Z,-3.38
2022-12-18T01:27:17.384Z,-3.15
2022-12-18T01:29:45.371Z,-3.63
2022-12-18T01:32:13.208Z,-3.44
2022-12-18T01:34:41.154Z,-3.56
2022-12-18T01:37:09.222Z,-3.31
2022-12-18T01:39:38.427Z,-3.38
2022-12-18T01:42:13.859Z,-3.32
2022-12-18T01:45:08.518Z,-3.35
2022-12-18T01:47:43.789Z,-3.38
2022-12-18T01:50:18.506Z,-3.32
2022-12-18T01:52:51.952Z,-3.56
2022-12-18T01:55:25.555Z,-3.83
2022-12-18T01:57:57.661Z,-3.58
2022-12-18T02:00:27.147Z,-3.43
2022-12-18T02:02:57.525Z,-3.68
2022-12-18T02:05:42.835Z,-3.47
2022-12-18T02:08:17.090Z,-3.79
2022-12-18T02:11:01.763Z,-3.65
2022-12-18T02:13:42.834Z,-3.65
2022-12-18T02:16:23.742Z,-3.54
2022-12-18T02:19:00.276Z,-3.53
2022-12-18T02:21:42.626Z,-3.51
2022-12-18T02:24:29.133Z,-3.75
2022-12-18T02:27:04.705Z,-4.07
2022-12-18T02:29:40.260Z,-3.88
2022-12-18T02:32:16.411Z,-3.85
2022-12-18T02:34:48.096Z,-4.00
2022-12-18T02:37:20.635Z,-3.78
2022-12-18T02:39:51.586Z,-3.52
2022-12-18T02:42:21.401Z,-3.69
2022-12-18T02:44:51.550Z,-3.40
2022-12-18T02:47:23.997Z,-3.98
2022-12-18T02:50:05.064Z,-3.79
2022-12-18T02:52:42.629Z,-3.98
2022-12-18T02:55:26.210Z,-3.97
2022-12-18T02:58:00.491Z,-3.83
2022-12-18T03:00:38.541Z,-3.83
2022-12-18T03:03:16.988Z,-3.85
2022-12-18T03:05:55.441Z,-3.61
2022-12-18T03:08:26.925Z,-3.69
2022-12-18T03:11:01.643Z,-3.71
2022-12-18T03:13:38.473Z,-3.83
2022-12-18T03:16:13.301Z,-3.82
2022-12-18T03:18:49.400Z,-3.93
2022-12-18T03:21:28.559Z,-3.92
2022-12-18T03:23:58.860Z,-3.99
2022-12-18T03:26:31.361Z,-4.16
2022-12-18T03:29:08.603Z,-3.90
2022-12-18T03:31:40.120Z,-3.86
2022-12-18T03:34:16.283Z,-4.11
2022-12-18T03:36:46.425Z,-4.26
2022-12-18T03:39:14.463Z,-3.92
2022-12-18T03:41:53.117Z,-4.09
2022-12-18T03:44:32.036Z,-4.13
2022-12-18T03:47:09.933Z,-4.25
2022-12-18T03:49:43.505Z,-4.67
2022-12-18T03:52:19.584Z,-4.30
2022-12-18T03:54:48.408Z,-4.22
2022-12-18T03:57:23.586Z,-4.23
2022-12-18T04:00:01.693Z,-4.38
2022-12-18T04:02:32.499Z,-4.14
2022-12-18T04:05:06.655Z,-4.11
2022-12-18T04:07:35.367Z,-4.22
2022-12-18T04:10:08.239Z,-4.14
2022-12-18T04:12:36.245Z,-4.18
2022-12-18T04:15:07.019Z,-4.12
2022-12-18T04:17:34.816Z,-4.19
2022-12-18T04:20:02.830Z,-4.37
2022-12-18T04:22:30.786Z,-4.14
2022-12-18T04:24:58.828Z,-4.04
2022-12-18T04:27:26.596Z,-4.14
2022-12-18T04:29:54.377Z,-4.22
2022-12-18T04:32:23.678Z,-3.91
2022-12-18T04:34:51.480Z,-4.07
2022-12-18T04:37:19.349Z,-4.32
2022-12-18T04:39:47.216Z,-3.87
2022-12-18T04:42:15.070Z,-3.88
2022-12-18T04:44:42.896Z,-3.32
2022-12-18T04:47:10.748Z,-3.98
2022-12-18T04:49:39.998Z,-3.79
2022-12-18T04:52:08.811Z,-3.80
2022-12-18T04:54:36.577Z,-3.71
2022-12-18T04:57:04.412Z,-3.44
2022-12-18T04:59:32.164Z,-3.50
2022-12-18T05:02:00.154Z,-3.52
2022-12-18T05:04:28.337Z,-3.50
2022-12-18T05:06:57.559Z,-3.68
2022-12-18T05:09:25.502Z,-3.50
2022-12-18T05:11:53.349Z,-3.35
2022-12-18T05:14:21.450Z,-3.02
2022-12-18T05:16:49.481Z,-3.17
2022-12-18T05:19:19.130Z,-3.35
2022-12-18T05:21:46.982Z,-3.30
2022-12-18T05:24:16.318Z,-3.49
2022-12-18T05:26:44.176Z,-3.15
2022-12-18T05:29:13.179Z,-3.09
2022-12-18T05:31:42.282Z,-2.92
2022-12-18T05:34:11.353Z,-3.22
2022-12-18T05:36:39.645Z,-3.00
2022-12-18T05:39:07.555Z,-2.96
2022-12-18T05:41:37.160Z,-2.89
2022-12-18T05:44:05.354Z,-3.21
2022-12-18T05:46:34.448Z,-3.17
2022-12-18T05:49:03.223Z,-3.05
2022-12-18T05:51:30.977Z,-3.34
2022-12-18T05:53:58.758Z,-3.56
2022-12-18T05:56:26.583Z,-3.45
2022-12-18T05:58:56.932Z,-3.76
2022-12-18T06:01:28.192Z,-3.50
2022-12-18T06:03:57.006Z,-3.47
2022-12-18T06:06:29.416Z,-3.39
2022-12-18T06:08:58.528Z,-3.34
2022-12-18T06:11:29.303Z,-3.48
2022-12-18T06:14:00.775Z,-3.72
2022-12-18T06:16:30.524Z,-3.42
2022-12-18T06:18:59.316Z,-3.54
2022-12-18T06:21:28.200Z,-3.40
2022-12-18T06:23:56.490Z,-3.50
2022-12-18T06:26:28.320Z,-3.42
2022-12-18T06:28:58.265Z,-3.70
2022-12-18T06:31:27.087Z,-4.67
2022-12-18T06:33:55.227Z,-4.27
2022-12-18T06:36:23.242Z,-3.94
2022-12-18T06:38:51.472Z,-3.89
2022-12-18T06:41:23.076Z,-4.00
2022-12-18T06:43:52.255Z,-5.23
2022-12-18T06:46:23.715Z,-4.24
2022-12-18T06:48:52.195Z,-4.13
2022-12-18T06:51:22.828Z,-4.49
2022-12-18T06:53:51.061Z,-3.95
2022-12-18T06:56:18.988Z,-4.03
2022-12-18T06:58:46.877Z,-3.98
2022-12-18T07:01:16.186Z,-3.96
2022-12-18T07:03:45.999Z,-3.59
2022-12-18T07:06:20.658Z,-3.46
2022-12-18T07:08:49.858Z,-3.42
2022-12-18T07:11:19.912Z,-3.29
2022-12-18T07:13:48.325Z,-3.35
2022-12-18T07:16:24.733Z,-3.37
2022-12-18T07:18:55.889Z,-3.81
2022-12-18T07:21:25.909Z,-3.64
2022-12-18T07:23:53.888Z,-3.60
2022-12-18T07:26:24.263Z,-3.67
2022-12-18T07:28:52.878Z,-3.89
2022-12-18T07:31:23.493Z,-3.55
2022-12-18T07:33:54.168Z,-3.83
2022-12-18T07:36:22.339Z,-3.78
2022-12-18T07:38:52.524Z,-3.37
2022-12-18T07:41:21.215Z,-3.67
2022-12-18T07:43:49.345Z,-3.40
2022-12-18T07:46:18.640Z,-3.16
2022-12-18T07:48:49.717Z,-2.89
2022-12-18T07:51:20.328Z,-2.79
2022-12-18T07:53:48.779Z,-2.93
2022-12-18T07:56:29.591Z,-2.85
2022-12-18T07:58:58.956Z,-2.72
2022-12-18T08:01:28.471Z,-2.82
2022-12-18T08:03:56.743Z,-2.60
2022-12-18T08:06:26.276Z,-2.31
2022-12-18T08:08:55.500Z,-2.69
2022-12-18T08:11:24.814Z,-2.20
2022-12-18T08:13:52.999Z,-1.83
2022-12-18T08:16:22.393Z,-1.54
2022-12-18T08:18:50.912Z,-2.04
2022-12-18T08:21:22.155Z,-1.65
2022-12-18T08:23:52.514Z,-2.35
2022-12-18T08:26:21.273Z,-2.06
2022-12-18T08:28:50.756Z,-2.57
2022-12-18T08:31:21.051Z,-1.76
2022-12-18T08:33:51.793Z,-1.69
2022-12-18T08:36:20.132Z,-2.06
2022-12-18T08:38:48.873Z,-2.19
2022-12-18T08:41:20.022Z,-2.61
2022-12-18T08:44:05.580Z,-2.17
2022-12-18T08:46:37.788Z,-2.17
2022-12-18T08:49:06.796Z,-2.01
2022-12-18T08:51:36.782Z,-1.88
2022-12-18T08:54:06.383Z,-1.95
2022-12-18T08:56:36.217Z,-1.26
2022-12-18T08:59:05.270Z,-0.89
2022-12-18T09:01:33.169Z,-0.65
2022-12-18T09:04:02.254Z,-0.45
2022-12-18T09:06:30.118Z,-0.62
2022-12-18T09:09:00.573Z,-0.35
2022-12-18T09:11:30.442Z,-0.01
2022-12-18T09:14:01.722Z,-0.36
2022-12-18T09:16:32.636Z,-0.16
2022-12-18T09:19:13.150Z,-0.13
2022-12-18T09:21:46.126Z,-0.03
2022-12-18T09:24:17.806Z,-0.18
2022-12-18T09:26:47.232Z,0.26
2022-12-18T09:29:19.071Z,-0.06
2022-12-18T09:31:53.232Z,0.46
2022-12-18T09:34:22.704Z,0.51
2022-12-18T09:36:50.868Z,0.20
2022-12-18T09:39:22.238Z,0.06
2022-12-18T09:41:55.794Z,-0.15
2022-12-18T09:44:31.628Z,0.05
2022-12-18T09:47:11.961Z,-0.01
2022-12-18T09:49:45.764Z,0.19
2022-12-18T09:52:22.997Z,0.18
2022-12-18T09:54:59.868Z,0.15
2022-12-18T09:57:27.990Z,0.11
2022-12-18T10:00:06.476Z,0.05
2022-12-18T10:02:34.566Z,0.20
2022-12-18T10:05:10.321Z,0.45
2022-12-18T10:07:51.895Z,0.47
2022-12-18T10:10:40.021Z,0.36
2022-12-18T10:13:21.300Z,0.43
2022-12-18T10:16:17.702Z,0.21
2022-12-18T10:19:09.825Z,0.25
2022-12-18T10:21:58.429Z,0.40
2022-12-18T10:24:36.181Z,0.41
2022-12-18T10:27:16.870Z,0.47
2022-12-18T10:29:46.727Z,0.42
2022-12-18T10:32:20.990Z,0.42
2022-12-18T10:34:49.506Z,0.42
2022-12-18T10:37:20.881Z,0.56
2022-12-18T10:40:09.088Z,0.46
2022-12-18T10:42:37.312Z,0.83
2022-12-18T10:45:12.641Z,0.92
2022-12-18T10:47:48.102Z,0.85
2022-12-18T10:51:01.436Z,0.84
2022-12-18T10:53:23.652Z,1.05
2022-12-18T10:55:54.147Z,1.29
2022-12-18T10:58:30.373Z,1.34
2022-12-18T11:01:12.155Z,1.30
2022-12-18T11:03:45.511Z,1.10
2022-12-18T11:06:16.300Z,1.31
2022-12-18T11:08:58.783Z,1.41
2022-12-18T11:11:27.706Z,1.62
2022-12-18T11:14:03.881Z,1.12
2022-12-18T11:16:37.192Z,1.46
2022-12-18T11:19:28.175Z,1.56
2022-12-18T11:21:56.241Z,1.48
2022-12-18T11:24:31.576Z,1.83
2022-12-18T11:27:03.281Z,2.08
2022-12-18T11:29:37.933Z,2.11
2022-12-18T11:32:42.866Z,2.14
2022-12-18T11:35:21.589Z,1.97
2022-12-18T11:37:58.648Z,2.18
2022-12-18T11:40:40.829Z,2.38
2022-12-18T11:43:15.235Z,2.52
2022-12-18T11:45:51.888Z,2.40
2022-12-18T11:48:27.019Z,2.50
2022-12-18T11:50:58.708Z,2.63
2022-12-18T11:53:29.003Z,2.55
2022-12-18T11:56:16.175Z,2.76
2022-12-18T11:59:03.051Z,2.64
2022-12-18T12:01:52.017Z,2.54
2022-12-18T12:04:50.788Z,2.21
2022-12-18T12:07:42.568Z,2.66
2022-12-18T12:10:34.944Z,2.55
2022-12-18T12:13:35.644Z,2.08
2022-12-18T12:16:19.905Z,2.37
2022-12-18T12:19:09.259Z,2.38
2022-12-18T12:21:44.460Z,2.34
2022-12-18T12:24:37.589Z,2.17
2022-12-18T12:27:20.538Z,2.57
2022-12-18T12:30:02.087Z,2.31
2022-12-18T12:32:52.803Z,2.31
2022-12-18T12:35:34.503Z,2.48
2022-12-18T12:38:12.900Z,2.28
2022-12-18T12:40:56.625Z,2.08
2022-12-18T12:43:40.476Z,2.19
2022-12-18T12:46:15.288Z,2.27
2022-12-18T12:48:50.355Z,2.20
2022-12-18T12:51:23.478Z,2.28
2022-12-18T12:53:52.848Z,2.22
2022-12-18T12:56:24.421Z,2.27
2022-12-18T12:59:08.248Z,2.38
2022-12-18T13:01:50.513Z,2.46
2022-12-18T13:04:29.830Z,2.41
2022-12-18T13:07:05.968Z,2.33
2022-12-18T13:09:36.900Z,2.45
2022-12-18T13:12:30.363Z,2.38
2022-12-18T13:15:22.355Z,2.28
2022-12-18T13:17:50.572Z,2.24
2022-12-18T13:20:18.850Z,2.35
2022-12-18T13:22:51.236Z,2.67
2022-12-18T13:25:39.859Z,2.50
2022-12-18T13:28:15.369Z,2.40
2022-12-18T13:30:57.260Z,2.49
2022-12-18T13:34:24.016Z,2.61
2022-12-18T13:36:41.030Z,2.30
2022-12-18T13:39:35.913Z,2.41
2022-12-18T13:42:59.049Z,2.10
2022-12-18T13:45:52.142Z,2.20
2022-12-18T13:48:25.295Z,2.19
2022-12-18T13:51:02.925Z,2.25
2022-12-18T13:53:41.057Z,2.11
2022-12-18T13:56:09.569Z,1.96
2022-12-18T13:58:38.492Z,1.99
2022-12-18T14:01:24.809Z,2.04
2022-12-18T14:04:12.228Z,2.08
2022-12-18T14:06:40.966Z,2.20
2022-12-18T14:09:21.303Z,2.19
2022-12-18T14:11:52.728Z,1.82
2022-12-18T14:14:21.681Z,1.84
2022-12-18T14:16:53.056Z,1.78
2022-12-18T14:19:22.888Z,1.98
2022-12-18T14:21:52.704Z,1.82
2022-12-18T14:24:23.676Z,2.08
2022-12-18T14:26:52.530Z,2.19
2022-12-18T14:29:27.348Z,2.31
2022-12-18T14:32:19.249Z,2.20
2022-12-18T14:34:49.911Z,2.22
2022-12-18T14:37:22.909Z,2.43
2022-12-18T14:40:16.200Z,2.42
2022-12-18T14:42:44.459Z,2.37
2022-12-18T14:45:41.440Z,2.27
2022-12-18T14:48:23.778Z,2.19
2022-12-18T14:51:02.637Z,2.44
2022-12-18T14:53:39.833Z,2.30
2022-12-18T14:56:22.843Z,2.41
2022-12-18T14:58:55.541Z,2.12
2022-12-18T15:01:29.479Z,2.20
2022-12-18T15:04:01.018Z,2.20
2022-12-18T15:06:36.521Z,2.15
2022-12-18T15:09:22.236Z,2.29
2022-12-18T15:11:51.312Z,2.51
2022-12-18T15:14:40.950Z,2.37
2022-12-18T15:17:20.608Z,2.32
2022-12-18T15:19:53.355Z,2.29
2022-12-18T15:22:27.562Z,2.07
2022-12-18T15:24:57.910Z,2.27
2022-12-18T15:27:36.685Z,1.98
2022-12-18T15:30:21.971Z,2.34
2022-12-18T15:32:51.272Z,2.20
2022-12-18T15:35:24.534Z,2.21
2022-12-18T15:37:53.939Z,2.32
2022-12-18T15:40:24.930Z,2.16
2022-12-18T15:43:14.865Z,1.66
2022-12-18T15:45:42.922Z,2.39
2022-12-18T15:48:23.187Z,2.35
2022-12-18T15:50:54.556Z,2.39
2022-12-18T15:53:22.454Z,2.24
2022-12-18T15:56:08.400Z,2.23
2022-12-18T15:58:36.414Z,2.25
2022-12-18T16:01:04.504Z,2.19
2022-12-18T16:03:32.515Z,2.20
2022-12-18T16:06:03.027Z,2.15
2022-12-18T16:08:32.171Z,2.08
2022-12-18T16:11:00.470Z,2.09
2022-12-18T16:13:28.788Z,2.08
2022-12-18T16:15:57.002Z,2.13
2022-12-18T16:18:24.842Z,2.12
2022-12-18T16:20:52.752Z,2.01
2022-12-18T16:23:22.321Z,2.39
2022-12-18T16:25:50.529Z,2.04
2022-12-18T16:28:18.634Z,1.99
2022-12-18T16:30:47.019Z,1.98
2022-12-18T16:33:20.996Z,2.05
2022-12-18T16:35:54.370Z,1.98
2022-12-18T16:38:23.660Z,2.26
2022-12-18T16:41:09.480Z,2.06
2022-12-18T16:43:38.822Z,1.96
2022-12-18T16:46:07.194Z,2.04
2022-12-18T16:48:35.366Z,2.37
2022-12-18T16:51:05.378Z,2.35
2022-12-18T16:54:10.153Z,2.21
2022-12-18T16:56:58.680Z,2.62
2022-12-18T16:59:27.532Z,2.31
2022-12-18T17:01:57.436Z,2.24
2022-12-18T17:04:25.661Z,2.43
2022-12-18T17:07:00.771Z,2.23
2022-12-18T17:09:29.948Z,2.44
2022-12-18T17:11:57.744Z,2.24
2022-12-18T17:14:27.463Z,2.45
2022-12-18T17:17:19.719Z,2.45
2022-12-18T17:19:48.975Z,2.27
2022-12-18T17:22:17.013Z,2.44
2022-12-18T17:24:47.466Z,2.50
2022-12-18T17:27:16.209Z,2.77
2022-12-18T17:29:47.983Z,2.59
2022-12-18T17:32:16.557Z,2.75
2022-12-18T17:34:44.529Z,2.42
2022-12-18T17:37:12.482Z,2.56
2022-12-18T17:39:40.861Z,2.50
2022-12-18T17:42:14.944Z,2.42
2022-12-18T17:44:44.095Z,2.49
2022-12-18T17:47:13.018Z,2.37
2022-12-18T17:49:41.182Z,2.27
2022-12-18T17:52:09.019Z,2.34
2022-12-18T17:54:39.574Z,2.36
2022-12-18T17:57:09.360Z,2.44
2022-12-18T17:59:37.374Z,2.17
2022-12-18T18:02:05.480Z,2.37
2022-12-18T18:04:33.484Z,2.40
2022-12-18T18:07:01.464Z,2.18
2022-12-18T18:09:29.566Z,2.15
2022-12-18T18:12:14.907Z,2.06
2022-12-18T18:14:44.423Z,2.30
2022-12-18T18:17:12.523Z,2.12
2022-12-18T18:19:41.981Z,2.00
2022-12-18T18:22:11.039Z,2.19
2022-12-18T18:24:38.855Z,2.17
2022-12-18T18:27:06.725Z,2.08
2022-12-18T18:29:34.788Z,2.46
2022-12-18T18:32:04.757Z,2.20
2022-12-18T18:34:34.309Z,2.26
2022-12-18T18:37:03.135Z,2.31
2022-12-18T18:39:43.857Z,2.28
2022-12-18T18:42:11.783Z,2.54
2022-12-18T18:44:43.266Z,2.28
2022-12-18T18:47:14.981Z,2.34
2022-12-18T18:49:42.777Z,2.30
2022-12-18T18:52:10.524Z,2.25
2022-12-18T18:54:44.307Z,2.20
2022-12-18T18:57:21.615Z,2.19
2022-12-18T18:59:50.587Z,2.26
2022-12-18T19:02:20.123Z,2.29
2022-12-18T19:04:47.983Z,2.05
2022-12-18T19:07:25.613Z,2.25
2022-12-18T19:10:04.907Z,2.30
2022-12-18T19:12:52.529Z,2.20
2022-12-18T19:15:28.662Z,2.20
2022-12-18T19:17:58.134Z,2.19
2022-12-18T19:20:26.661Z,2.42
2022-12-18T19:22:57.170Z,2.11
2022-12-18T19:25:38.438Z,2.08
2022-12-18T19:28:22.157Z,2.02
2022-12-18T19:30:57.296Z,2.10
2022-12-18T19:33:46.142Z,2.29
2022-12-18T19:36:20.744Z,2.30
2022-12-18T19:38:50.063Z,2.11
2022-12-18T19:41:18.901Z,2.21
2022-12-18T19:43:48.769Z,2.35
2022-12-18T19:46:20.048Z,2.34
2022-12-18T19:48:50.154Z,2.37
2022-12-18T19:51:20.922Z,2.26
2022-12-18T19:53:53.586Z,2.43
2022-12-18T19:56:27.633Z,2.47
2022-12-18T19:58:56.553Z,2.27
2022-12-18T20:01:27.351Z,2.21
2022-12-18T20:03:58.194Z,2.31
2022-12-18T20:06:30.814Z,2.49
2022-12-18T20:09:01.696Z,2.53
2022-12-18T20:11:29.880Z,2.20
2022-12-18T20:13:57.977Z,2.41
2022-12-18T20:16:25.940Z,2.67
2022-12-18T20:18:55.989Z,2.35
2022-12-18T20:21:26.933Z,2.15
2022-12-18T20:23:55.701Z,2.31
2022-12-18T20:26:24.827Z,2.45
2022-12-18T20:28:53.270Z,2.51
2022-12-18T20:31:28.066Z,2.55
2022-12-18T20:34:00.251Z,2.64
2022-12-18T20:36:30.637Z,2.55
2022-12-18T20:39:00.509Z,2.49
2022-12-18T20:41:30.591Z,2.68
2022-12-18T20:44:06.206Z,2.72
2022-12-18T20:46:41.993Z,2.74
2022-12-18T20:49:11.311Z,2.67
2022-12-18T20:51:39.032Z,2.33
2022-12-18T20:54:11.658Z,2.58
2022-12-18T20:56:39.840Z,2.41
2022-12-18T20:59:07.882Z,2.41
2022-12-18T21:01:35.894Z,2.58
2022-12-18T21:04:05.272Z,2.45
2022-12-18T21:06:34.746Z,2.51
2022-12-18T21:09:02.690Z,2.48
2022-12-18T21:11:51.065Z,2.60
2022-12-18T21:14:22.858Z,2.54
2022-12-18T21:16:54.726Z,2.48
2022-12-18T21:19:25.321Z,2.32
2022-12-18T21:21:56.977Z,2.39
2022-12-18T21:24:25.495Z,2.48
2022-12-18T21:26:54.124Z,2.26
2022-12-18T21:29:25.456Z,2.32
2022-12-18T21:31:55.217Z,2.43
2022-12-18T21:34:26.577Z,2.13
2022-12-18T21:36:58.466Z,2.44
2022-12-18T21:39:27.871Z,2.28
2022-12-18T21:42:14.031Z,2.10
2022-12-18T21:44:42.714Z,2.06
2022-12-18T21:47:22.430Z,1.94
2022-12-18T21:49:53.176Z,1.90
2022-12-18T21:52:31.239Z,2.05
2022-12-18T21:55:06.592Z,2.03
2022-12-18T21:57:36.300Z,1.96
2022-12-18T22:00:06.125Z,1.99
2022-12-18T22:02:35.497Z,2.03
2022-12-18T22:05:03.461Z,1.81
2022-12-18T22:07:32.868Z,1.98
2022-12-18T22:10:01.196Z,1.88
2022-12-18T22:12:43.557Z,1.89
2022-12-18T22:15:21.804Z,1.92
2022-12-18T22:17:51.264Z,1.92
2022-12-18T22:20:26.009Z,1.91
2022-12-18T22:22:56.121Z,1.87
2022-12-18T22:25:23.947Z,1.87
2022-12-18T22:28:05.670Z,1.86
2022-12-18T22:30:38.216Z,1.92
2022-12-18T22:33:06.462Z,1.89
2022-12-18T22:35:44.616Z,1.91
2022-12-18T22:38:14.428Z,1.95
2022-12-18T22:40:42.348Z,1.80
2022-12-18T22:43:10.320Z,1.90
2022-12-18T22:45:38.402Z,1.86
2022-12-18T22:48:07.328Z,1.88
2022-12-18T22:50:35.129Z,1.91
2022-12-18T22:53:02.951Z,2.00
2022-12-18T22:55:32.593Z,2.04
2022-12-18T22:58:00.448Z,1.75
2022-12-18T23:00:28.217Z,1.87
2022-12-18T23:03:00.752Z,1.81
2022-12-18T23:05:31.348Z,1.76
2022-12-18T23:08:00.744Z,1.78
2022-12-18T23:10:29.050Z,1.90
2022-12-18T23:12:58.298Z,1.86
2022-12-18T23:15:27.670Z,2.00
2022-12-18T23:17:58.352Z,1.88
2022-12-18T23:20:26.777Z,1.82
2022-12-18T23:22:55.204Z,1.98
2022-12-18T23:25:23.372Z,1.81
2022-12-18T23:27:52.088Z,1.83
2022-12-18T23:30:21.504Z,1.70
2022-12-18T23:32:49.395Z,1.88
2022-12-18T23:35:17.958Z,1.57
2022-12-18T23:37:58.576Z,1.66
2022-12-18T23:40:27.376Z,1.61
2022-12-18T23:42:55.476Z,1.76
2022-12-18T23:45:24.667Z,1.86
2022-12-18T23:47:52.715Z,1.90
2022-12-18T23:50:27.697Z,1.89
2022-12-18T23:53:04.787Z,1.92
2022-12-18T23:55:39.489Z,1.84
2022-12-18T23:58:07.620Z,2.04
